sensor_id;sensor_type;location;lat;lon;timestamp;P1;durP1;ratioP1;P2;durP2;ratioP2
4089;SDS011;2059;48.538;12.146;2023-02-13T00:03:17;29.10;;;14.57;;
4089;SDS011;2059;48.538;12.146;2023-02-13T00:08:19;18.93;;;14.40;;
4089;SDS011;2059;48.538;12.146;2023-02-13T00:13:22;18.23;;;13.47;;
4089;SDS011;2059;48.538;12.146;2023-02-13T00:18:24;19.63;;;15.03;;
4089;SDS011;2059;48.538;12.146;2023-02-13T00:23:26;21.37;;;14.30;;
4089;SDS011;2059;48.538;12.146;2023-02-13T00:28:31;19.50;;;15.20;;
4089;SDS011;2059;48.538;12.146;2023-02-13T00:33:33;19.13;;;15.90;;
4089;SDS011;2059;48.538;12.146;2023-02-13T00:38:36;23.37;;;14.23;;
4089;SDS011;2059;48.538;12.146;2023-02-13T00:43:40;19.10;;;14.43;;
4089;SDS011;2059;48.538;12.146;2023-02-13T00:48:41;16.00;;;13.40;;
4089;SDS011;2059;48.538;12.146;2023-02-13T00:53:44;16.50;;;13.63;;
4089;SDS011;2059;48.538;12.146;2023-02-13T00:58:47;16.10;;;12.83;;
4089;SDS011;2059;48.538;12.146;2023-02-13T01:03:49;16.67;;;12.13;;
4089;SDS011;2059;48.538;12.146;2023-02-13T01:08:50;13.67;;;11.13;;
4089;SDS011;2059;48.538;12.146;2023-02-13T01:13:53;15.00;;;12.40;;
4089;SDS011;2059;48.538;12.146;2023-02-13T01:18:55;15.27;;;11.90;;
4089;SDS011;2059;48.538;12.146;2023-02-13T01:23:57;17.50;;;12.63;;
4089;SDS011;2059;48.538;12.146;2023-02-13T01:29:04;16.30;;;11.77;;
4089;SDS011;2059;48.538;12.146;2023-02-13T01:34:05;20.30;;;12.03;;
4089;SDS011;2059;48.538;12.146;2023-02-13T01:39:09;16.83;;;13.10;;
4089;SDS011;2059;48.538;12.146;2023-02-13T01:49:52;34.27;;;14.17;;
4089;SDS011;2059;48.538;12.146;2023-02-13T01:54:59;22.90;;;15.27;;
4089;SDS011;2059;48.538;12.146;2023-02-13T02:00:04;33.43;;;17.93;;
4089;SDS011;2059;48.538;12.146;2023-02-13T02:05:11;21.97;;;14.40;;
4089;SDS011;2059;48.538;12.146;2023-02-13T02:10:14;23.20;;;15.70;;
4089;SDS011;2059;48.538;12.146;2023-02-13T02:15:19;28.93;;;17.60;;
4089;SDS011;2059;48.538;12.146;2023-02-13T02:20:25;75.00;;;20.40;;
4089;SDS011;2059;48.538;12.146;2023-02-13T02:25:49;43.07;;;18.87;;
4089;SDS011;2059;48.538;12.146;2023-02-13T02:31:39;52.50;;;17.00;;
4089;SDS011;2059;48.538;12.146;2023-02-13T02:37:01;29.13;;;14.23;;
4089;SDS011;2059;48.538;12.146;2023-02-13T02:42:16;18.67;;;13.93;;
4089;SDS011;2059;48.538;12.146;2023-02-13T02:47:30;17.37;;;13.10;;
4089;SDS011;2059;48.538;12.146;2023-02-13T02:52:56;18.80;;;13.80;;
4089;SDS011;2059;48.538;12.146;2023-02-13T02:58:10;19.70;;;14.17;;
4089;SDS011;2059;48.538;12.146;2023-02-13T03:03:37;18.07;;;13.97;;
4089;SDS011;2059;48.538;12.146;2023-02-13T03:08:58;25.73;;;11.57;;
4089;SDS011;2059;48.538;12.146;2023-02-13T03:14:19;21.20;;;12.40;;
4089;SDS011;2059;48.538;12.146;2023-02-13T03:19:26;16.47;;;12.47;;
4089;SDS011;2059;48.538;12.146;2023-02-13T03:24:58;32.23;;;13.33;;
4089;SDS011;2059;48.538;12.146;2023-02-13T03:30:11;21.03;;;13.10;;
4089;SDS011;2059;48.538;12.146;2023-02-13T03:35:23;37.90;;;12.60;;
4089;SDS011;2059;48.538;12.146;2023-02-13T03:40:47;18.30;;;14.30;;
4089;SDS011;2059;48.538;12.146;2023-02-13T03:46:09;20.97;;;14.60;;
4089;SDS011;2059;48.538;12.146;2023-02-13T03:51:13;18.90;;;14.23;;
4089;SDS011;2059;48.538;12.146;2023-02-13T03:56:19;18.10;;;13.83;;
4089;SDS011;2059;48.538;12.146;2023-02-13T04:01:42;28.97;;;13.20;;
4089;SDS011;2059;48.538;12.146;2023-02-13T04:25:19;19.40;;;12.70;;
4089;SDS011;2059;48.538;12.146;2023-02-13T04:36:32;15.47;;;12.43;;
4089;SDS011;2059;48.538;12.146;2023-02-13T04:41:35;17.97;;;13.60;;
4089;SDS011;2059;48.538;12.146;2023-02-13T04:46:37;18.43;;;13.93;;
4089;SDS011;2059;48.538;12.146;2023-02-13T04:51:39;20.03;;;13.87;;
4089;SDS011;2059;48.538;12.146;2023-02-13T04:56:42;15.97;;;13.70;;
4089;SDS011;2059;48.538;12.146;2023-02-13T05:01:44;16.00;;;13.23;;
4089;SDS011;2059;48.538;12.146;2023-02-13T05:06:46;15.60;;;12.60;;
4089;SDS011;2059;48.538;12.146;2023-02-13T05:11:50;16.83;;;13.53;;
4089;SDS011;2059;48.538;12.146;2023-02-13T05:16:52;15.73;;;13.50;;
4089;SDS011;2059;48.538;12.146;2023-02-13T05:21:54;16.70;;;13.70;;
4089;SDS011;2059;48.538;12.146;2023-02-13T05:27:15;19.47;;;13.97;;
4089;SDS011;2059;48.538;12.146;2023-02-13T05:32:17;19.70;;;14.47;;
4089;SDS011;2059;48.538;12.146;2023-02-13T05:37:19;21.77;;;15.20;;
4089;SDS011;2059;48.538;12.146;2023-02-13T05:42:22;18.40;;;14.13;;
4089;SDS011;2059;48.538;12.146;2023-02-13T05:47:24;20.93;;;14.23;;
4089;SDS011;2059;48.538;12.146;2023-02-13T05:52:25;22.87;;;16.20;;
4089;SDS011;2059;48.538;12.146;2023-02-13T05:57:29;22.17;;;15.97;;
4089;SDS011;2059;48.538;12.146;2023-02-13T06:02:30;19.27;;;15.00;;
4089;SDS011;2059;48.538;12.146;2023-02-13T06:07:32;19.57;;;14.20;;
4089;SDS011;2059;48.538;12.146;2023-02-13T06:12:35;19.80;;;14.67;;
4089;SDS011;2059;48.538;12.146;2023-02-13T06:17:37;20.20;;;14.43;;
4089;SDS011;2059;48.538;12.146;2023-02-13T06:22:39;24.30;;;14.67;;
4089;SDS011;2059;48.538;12.146;2023-02-13T06:27:42;20.30;;;14.10;;
4089;SDS011;2059;48.538;12.146;2023-02-13T06:32:45;19.10;;;13.97;;
4089;SDS011;2059;48.538;12.146;2023-02-13T06:37:47;18.47;;;14.97;;
4089;SDS011;2059;48.538;12.146;2023-02-13T06:42:52;20.93;;;15.50;;
4089;SDS011;2059;48.538;12.146;2023-02-13T06:47:54;21.93;;;16.40;;
4089;SDS011;2059;48.538;12.146;2023-02-13T06:52:56;17.23;;;13.87;;
4089;SDS011;2059;48.538;12.146;2023-02-13T06:57:59;22.60;;;13.40;;
4089;SDS011;2059;48.538;12.146;2023-02-13T07:03:01;18.47;;;13.90;;
4089;SDS011;2059;48.538;12.146;2023-02-13T07:08:04;20.20;;;15.43;;
4089;SDS011;2059;48.538;12.146;2023-02-13T07:13:07;21.13;;;15.57;;
4089;SDS011;2059;48.538;12.146;2023-02-13T07:18:10;22.60;;;16.37;;
4089;SDS011;2059;48.538;12.146;2023-02-13T07:23:12;21.47;;;16.27;;
4089;SDS011;2059;48.538;12.146;2023-02-13T07:28:15;20.10;;;14.80;;
4089;SDS011;2059;48.538;12.146;2023-02-13T07:33:17;23.70;;;17.10;;
4089;SDS011;2059;48.538;12.146;2023-02-13T07:38:18;22.07;;;15.63;;
4089;SDS011;2059;48.538;12.146;2023-02-13T07:43:25;23.63;;;16.20;;
4089;SDS011;2059;48.538;12.146;2023-02-13T07:48:27;24.27;;;16.00;;
4089;SDS011;2059;48.538;12.146;2023-02-13T07:53:31;32.80;;;19.60;;
4089;SDS011;2059;48.538;12.146;2023-02-13T07:58:34;29.17;;;19.70;;
4089;SDS011;2059;48.538;12.146;2023-02-13T08:03:36;31.93;;;17.93;;
4089;SDS011;2059;48.538;12.146;2023-02-13T08:08:38;30.07;;;18.17;;
4089;SDS011;2059;48.538;12.146;2023-02-13T08:13:41;32.10;;;19.73;;
4089;SDS011;2059;48.538;12.146;2023-02-13T08:18:43;32.80;;;20.43;;
4089;SDS011;2059;48.538;12.146;2023-02-13T08:23:45;28.03;;;19.30;;
4089;SDS011;2059;48.538;12.146;2023-02-13T08:28:49;30.67;;;19.60;;
4089;SDS011;2059;48.538;12.146;2023-02-13T08:33:51;32.90;;;19.60;;
4089;SDS011;2059;48.538;12.146;2023-02-13T08:38:52;34.50;;;19.20;;
4089;SDS011;2059;48.538;12.146;2023-02-13T08:43:56;30.73;;;19.90;;
4089;SDS011;2059;48.538;12.146;2023-02-13T08:48:58;33.63;;;19.40;;
4089;SDS011;2059;48.538;12.146;2023-02-13T08:54:00;32.17;;;20.60;;
4089;SDS011;2059;48.538;12.146;2023-02-13T08:59:03;28.03;;;18.10;;
4089;SDS011;2059;48.538;12.146;2023-02-13T09:04:05;29.60;;;19.97;;
4089;SDS011;2059;48.538;12.146;2023-02-13T09:09:07;27.13;;;17.30;;
4089;SDS011;2059;48.538;12.146;2023-02-13T09:14:10;26.50;;;18.93;;
4089;SDS011;2059;48.538;12.146;2023-02-13T09:19:12;27.93;;;18.57;;
4089;SDS011;2059;48.538;12.146;2023-02-13T09:24:14;25.70;;;18.63;;
4089;SDS011;2059;48.538;12.146;2023-02-13T09:29:17;23.20;;;16.50;;
4089;SDS011;2059;48.538;12.146;2023-02-13T09:34:18;21.83;;;15.60;;
4089;SDS011;2059;48.538;12.146;2023-02-13T09:39:20;15.83;;;13.40;;
4089;SDS011;2059;48.538;12.146;2023-02-13T09:44:26;15.90;;;13.37;;
4089;SDS011;2059;48.538;12.146;2023-02-13T09:49:39;13.67;;;12.17;;
4089;SDS011;2059;48.538;12.146;2023-02-13T09:54:45;15.60;;;13.30;;
4089;SDS011;2059;48.538;12.146;2023-02-13T09:59:52;14.43;;;12.67;;
4089;SDS011;2059;48.538;12.146;2023-02-13T10:04:59;17.03;;;14.47;;
4089;SDS011;2059;48.538;12.146;2023-02-13T10:10:11;20.10;;;16.30;;
4089;SDS011;2059;48.538;12.146;2023-02-13T10:15:25;20.93;;;15.53;;
4089;SDS011;2059;48.538;12.146;2023-02-13T10:20:31;15.50;;;13.43;;
4089;SDS011;2059;48.538;12.146;2023-02-13T10:25:40;43.30;;;23.93;;
4089;SDS011;2059;48.538;12.146;2023-02-13T10:30:48;18.57;;;14.43;;
4089;SDS011;2059;48.538;12.146;2023-02-13T10:35:55;15.27;;;13.13;;
4089;SDS011;2059;48.538;12.146;2023-02-13T10:46:27;14.37;;;12.47;;
4089;SDS011;2059;48.538;12.146;2023-02-13T10:51:41;13.43;;;12.03;;
4089;SDS011;2059;48.538;12.146;2023-02-13T10:56:52;14.40;;;12.90;;
4089;SDS011;2059;48.538;12.146;2023-02-13T11:02:01;16.10;;;12.40;;
4089;SDS011;2059;48.538;12.146;2023-02-13T11:07:13;15.47;;;13.60;;
4089;SDS011;2059;48.538;12.146;2023-02-13T11:12:24;16.37;;;13.00;;
4089;SDS011;2059;48.538;12.146;2023-02-13T11:17:30;14.27;;;11.90;;
4089;SDS011;2059;48.538;12.146;2023-02-13T11:22:35;14.27;;;12.60;;
4089;SDS011;2059;48.538;12.146;2023-02-13T11:27:41;13.73;;;12.23;;
4089;SDS011;2059;48.538;12.146;2023-02-13T11:32:45;16.07;;;14.53;;
4089;SDS011;2059;48.538;12.146;2023-02-13T11:38:09;14.77;;;13.23;;
4089;SDS011;2059;48.538;12.146;2023-02-13T11:43:16;14.40;;;12.67;;
4089;SDS011;2059;48.538;12.146;2023-02-13T11:48:21;15.40;;;13.47;;
4089;SDS011;2059;48.538;12.146;2023-02-13T11:53:23;15.83;;;13.20;;
4089;SDS011;2059;48.538;12.146;2023-02-13T11:58:30;16.83;;;13.60;;
4089;SDS011;2059;48.538;12.146;2023-02-13T12:03:33;21.97;;;14.60;;
4089;SDS011;2059;48.538;12.146;2023-02-13T12:08:36;17.37;;;14.97;;
4089;SDS011;2059;48.538;12.146;2023-02-13T12:13:39;19.20;;;15.03;;
4089;SDS011;2059;48.538;12.146;2023-02-13T12:18:44;20.30;;;14.93;;
4089;SDS011;2059;48.538;12.146;2023-02-13T12:23:52;25.00;;;18.83;;
4089;SDS011;2059;48.538;12.146;2023-02-13T12:29:10;25.10;;;18.90;;
4089;SDS011;2059;48.538;12.146;2023-02-13T12:34:31;27.77;;;19.00;;
4089;SDS011;2059;48.538;12.146;2023-02-13T12:40:04;27.23;;;19.47;;
4089;SDS011;2059;48.538;12.146;2023-02-13T12:45:25;24.53;;;19.10;;
4089;SDS011;2059;48.538;12.146;2023-02-13T12:50:37;23.73;;;18.30;;
4089;SDS011;2059;48.538;12.146;2023-02-13T12:55:52;22.70;;;17.43;;
4089;SDS011;2059;48.538;12.146;2023-02-13T13:01:11;16.67;;;13.33;;
4089;SDS011;2059;48.538;12.146;2023-02-13T13:17:27;16.70;;;13.30;;
4089;SDS011;2059;48.538;12.146;2023-02-13T13:22:44;17.60;;;15.77;;
4089;SDS011;2059;48.538;12.146;2023-02-13T13:27:54;14.70;;;13.20;;
4089;SDS011;2059;48.538;12.146;2023-02-13T13:32:59;16.20;;;12.87;;
4089;SDS011;2059;48.538;12.146;2023-02-13T13:38:10;14.00;;;12.50;;
4089;SDS011;2059;48.538;12.146;2023-02-13T13:43:18;15.10;;;13.30;;
4089;SDS011;2059;48.538;12.146;2023-02-13T13:48:33;18.07;;;16.23;;
4089;SDS011;2059;48.538;12.146;2023-02-13T13:59:54;17.87;;;16.17;;
4089;SDS011;2059;48.538;12.146;2023-02-13T14:05:01;18.30;;;16.43;;
4089;SDS011;2059;48.538;12.146;2023-02-13T14:16:10;20.97;;;18.80;;
4089;SDS011;2059;48.538;12.146;2023-02-13T14:21:12;20.40;;;18.30;;
4089;SDS011;2059;48.538;12.146;2023-02-13T14:26:27;18.73;;;16.77;;
4089;SDS011;2059;48.538;12.146;2023-02-13T14:31:39;18.97;;;17.10;;
4089;SDS011;2059;48.538;12.146;2023-02-13T14:36:44;17.23;;;15.53;;
4089;SDS011;2059;48.538;12.146;2023-02-13T14:41:57;19.90;;;17.90;;
4089;SDS011;2059;48.538;12.146;2023-02-13T14:47:03;19.27;;;17.27;;
4089;SDS011;2059;48.538;12.146;2023-02-13T14:52:14;19.67;;;17.13;;
4089;SDS011;2059;48.538;12.146;2023-02-13T14:57:22;18.30;;;16.50;;
4089;SDS011;2059;48.538;12.146;2023-02-13T15:02:29;18.90;;;16.90;;
4089;SDS011;2059;48.538;12.146;2023-02-13T15:07:34;17.07;;;14.77;;
4089;SDS011;2059;48.538;12.146;2023-02-13T15:12:41;18.43;;;16.23;;
4089;SDS011;2059;48.538;12.146;2023-02-13T15:17:44;19.37;;;14.90;;
4089;SDS011;2059;48.538;12.146;2023-02-13T15:22:47;20.10;;;17.87;;
4089;SDS011;2059;48.538;12.146;2023-02-13T15:27:50;23.13;;;15.10;;
4089;SDS011;2059;48.538;12.146;2023-02-13T15:32:56;18.80;;;16.70;;
4089;SDS011;2059;48.538;12.146;2023-02-13T15:38:01;18.93;;;16.77;;
4089;SDS011;2059;48.538;12.146;2023-02-13T15:43:20;20.30;;;17.60;;
4089;SDS011;2059;48.538;12.146;2023-02-13T15:48:27;24.37;;;18.70;;
4089;SDS011;2059;48.538;12.146;2023-02-13T15:53:29;20.37;;;16.30;;
4089;SDS011;2059;48.538;12.146;2023-02-13T15:58:31;22.50;;;16.13;;
4089;SDS011;2059;48.538;12.146;2023-02-13T16:03:36;17.87;;;15.40;;
4089;SDS011;2059;48.538;12.146;2023-02-13T16:08:43;19.90;;;17.07;;
4089;SDS011;2059;48.538;12.146;2023-02-13T16:13:57;21.97;;;17.60;;
4089;SDS011;2059;48.538;12.146;2023-02-13T16:24:37;21.90;;;17.00;;
4089;SDS011;2059;48.538;12.146;2023-02-13T16:29:41;20.47;;;16.20;;
4089;SDS011;2059;48.538;12.146;2023-02-13T16:34:49;19.03;;;15.00;;
4089;SDS011;2059;48.538;12.146;2023-02-13T16:39:52;18.17;;;15.20;;
4089;SDS011;2059;48.538;12.146;2023-02-13T16:50:25;20.53;;;15.83;;
4089;SDS011;2059;48.538;12.146;2023-02-13T16:55:26;22.93;;;16.87;;
4089;SDS011;2059;48.538;12.146;2023-02-13T17:00:30;21.13;;;16.53;;
4089;SDS011;2059;48.538;12.146;2023-02-13T17:05:34;27.30;;;17.13;;
4089;SDS011;2059;48.538;12.146;2023-02-13T17:10:37;20.47;;;15.50;;
4089;SDS011;2059;48.538;12.146;2023-02-13T17:15:41;21.20;;;16.63;;
4089;SDS011;2059;48.538;12.146;2023-02-13T17:20:45;22.67;;;16.53;;
4089;SDS011;2059;48.538;12.146;2023-02-13T17:25:48;22.90;;;17.60;;
4089;SDS011;2059;48.538;12.146;2023-02-13T17:30:53;24.93;;;17.97;;
4089;SDS011;2059;48.538;12.146;2023-02-13T17:35:58;25.00;;;18.73;;
4089;SDS011;2059;48.538;12.146;2023-02-13T17:41:00;27.20;;;18.07;;
4089;SDS011;2059;48.538;12.146;2023-02-13T17:46:02;23.77;;;17.97;;
4089;SDS011;2059;48.538;12.146;2023-02-13T17:51:05;23.70;;;18.87;;
4089;SDS011;2059;48.538;12.146;2023-02-13T17:56:09;22.70;;;17.73;;
4089;SDS011;2059;48.538;12.146;2023-02-13T18:01:11;23.13;;;17.33;;
4089;SDS011;2059;48.538;12.146;2023-02-13T18:06:14;24.30;;;18.53;;
4089;SDS011;2059;48.538;12.146;2023-02-13T18:11:16;26.67;;;19.70;;
4089;SDS011;2059;48.538;12.146;2023-02-13T18:16:18;30.33;;;21.60;;
4089;SDS011;2059;48.538;12.146;2023-02-13T18:21:23;30.50;;;21.27;;
4089;SDS011;2059;48.538;12.146;2023-02-13T18:26:25;27.77;;;20.80;;
4089;SDS011;2059;48.538;12.146;2023-02-13T18:31:27;30.30;;;22.40;;
4089;SDS011;2059;48.538;12.146;2023-02-13T18:36:31;28.90;;;20.60;;
4089;SDS011;2059;48.538;12.146;2023-02-13T18:41:33;29.90;;;21.30;;
4089;SDS011;2059;48.538;12.146;2023-02-13T18:46:35;29.03;;;22.00;;
4089;SDS011;2059;48.538;12.146;2023-02-13T18:51:38;31.23;;;22.37;;
4089;SDS011;2059;48.538;12.146;2023-02-13T18:56:41;37.40;;;25.57;;
4089;SDS011;2059;48.538;12.146;2023-02-13T19:01:43;30.43;;;23.20;;
4089;SDS011;2059;48.538;12.146;2023-02-13T19:06:46;38.40;;;28.03;;
4089;SDS011;2059;48.538;12.146;2023-02-13T19:17:03;31.20;;;21.90;;
4089;SDS011;2059;48.538;12.146;2023-02-13T19:22:08;29.60;;;21.33;;
4089;SDS011;2059;48.538;12.146;2023-02-13T19:27:10;32.07;;;21.80;;
4089;SDS011;2059;48.538;12.146;2023-02-13T19:32:11;34.83;;;21.83;;
4089;SDS011;2059;48.538;12.146;2023-02-13T19:37:15;33.87;;;21.23;;
4089;SDS011;2059;48.538;12.146;2023-02-13T19:42:16;32.83;;;21.10;;
4089;SDS011;2059;48.538;12.146;2023-02-13T19:47:18;38.83;;;20.40;;
4089;SDS011;2059;48.538;12.146;2023-02-13T19:52:21;28.30;;;18.70;;
4089;SDS011;2059;48.538;12.146;2023-02-13T19:57:23;31.27;;;18.50;;
4089;SDS011;2059;48.538;12.146;2023-02-13T20:02:25;34.37;;;20.50;;
4089;SDS011;2059;48.538;12.146;2023-02-13T20:07:28;32.20;;;19.67;;
4089;SDS011;2059;48.538;12.146;2023-02-13T20:12:30;32.20;;;20.87;;
4089;SDS011;2059;48.538;12.146;2023-02-13T20:17:34;36.60;;;21.87;;
4089;SDS011;2059;48.538;12.146;2023-02-13T20:22:37;65.90;;;20.90;;
4089;SDS011;2059;48.538;12.146;2023-02-13T20:27:39;57.23;;;21.27;;
4089;SDS011;2059;48.538;12.146;2023-02-13T20:32:41;35.00;;;20.13;;
4089;SDS011;2059;48.538;12.146;2023-02-13T20:37:44;35.87;;;20.30;;
4089;SDS011;2059;48.538;12.146;2023-02-13T20:42:47;33.60;;;21.23;;
4089;SDS011;2059;48.538;12.146;2023-02-13T20:47:48;48.70;;;21.37;;
4089;SDS011;2059;48.538;12.146;2023-02-13T20:52:51;70.20;;;19.87;;
4089;SDS011;2059;48.538;12.146;2023-02-13T20:57:53;39.43;;;20.77;;
4089;SDS011;2059;48.538;12.146;2023-02-13T21:02:55;35.63;;;19.90;;
4089;SDS011;2059;48.538;12.146;2023-02-13T21:07:58;43.70;;;21.47;;
4089;SDS011;2059;48.538;12.146;2023-02-13T21:12:59;46.97;;;19.30;;
4089;SDS011;2059;48.538;12.146;2023-02-13T21:18:02;34.40;;;19.20;;
4089;SDS011;2059;48.538;12.146;2023-02-13T21:23:05;30.67;;;20.33;;
4089;SDS011;2059;48.538;12.146;2023-02-13T21:28:07;36.10;;;21.30;;
4089;SDS011;2059;48.538;12.146;2023-02-13T21:33:09;31.70;;;20.77;;
4089;SDS011;2059;48.538;12.146;2023-02-13T21:38:12;33.87;;;18.63;;
4089;SDS011;2059;48.538;12.146;2023-02-13T21:43:13;55.23;;;19.90;;
4089;SDS011;2059;48.538;12.146;2023-02-13T21:48:15;33.07;;;21.07;;
4089;SDS011;2059;48.538;12.146;2023-02-13T21:53:18;41.70;;;21.67;;
4089;SDS011;2059;48.538;12.146;2023-02-13T21:58:20;58.63;;;23.67;;
4089;SDS011;2059;48.538;12.146;2023-02-13T22:03:21;38.00;;;21.30;;
4089;SDS011;2059;48.538;12.146;2023-02-13T22:08:25;29.67;;;18.80;;
4089;SDS011;2059;48.538;12.146;2023-02-13T22:13:26;34.00;;;18.83;;
4089;SDS011;2059;48.538;12.146;2023-02-13T22:18:29;25.50;;;17.60;;
4089;SDS011;2059;48.538;12.146;2023-02-13T22:23:33;25.97;;;17.33;;
4089;SDS011;2059;48.538;12.146;2023-02-13T22:28:44;37.53;;;17.50;;
4089;SDS011;2059;48.538;12.146;2023-02-13T22:33:46;28.00;;;18.70;;
4089;SDS011;2059;48.538;12.146;2023-02-13T22:38:48;30.70;;;19.70;;
4089;SDS011;2059;48.538;12.146;2023-02-13T22:43:52;32.97;;;20.23;;
4089;SDS011;2059;48.538;12.146;2023-02-13T22:48:54;28.40;;;17.90;;
4089;SDS011;2059;48.538;12.146;2023-02-13T22:53:57;33.00;;;19.80;;
4089;SDS011;2059;48.538;12.146;2023-02-13T22:59:02;34.13;;;19.10;;
4089;SDS011;2059;48.538;12.146;2023-02-13T23:04:03;32.27;;;19.13;;
4089;SDS011;2059;48.538;12.146;2023-02-13T23:09:05;32.77;;;20.10;;
4089;SDS011;2059;48.538;12.146;2023-02-13T23:14:09;38.20;;;19.70;;
4089;SDS011;2059;48.538;12.146;2023-02-13T23:19:11;28.50;;;18.00;;
4089;SDS011;2059;48.538;12.146;2023-02-13T23:24:13;28.73;;;19.20;;
4089;SDS011;2059;48.538;12.146;2023-02-13T23:29:16;34.43;;;18.20;;
4089;SDS011;2059;48.538;12.146;2023-02-13T23:34:18;25.87;;;16.90;;
4089;SDS011;2059;48.538;12.146;2023-02-13T23:39:20;28.50;;;17.00;;
4089;SDS011;2059;48.538;12.146;2023-02-13T23:44:24;29.90;;;18.33;;
4089;SDS011;2059;48.538;12.146;2023-02-13T23:49:26;31.37;;;20.00;;
4089;SDS011;2059;48.538;12.146;2023-02-13T23:54:28;31.57;;;17.87;;
4089;SDS011;2059;48.538;12.146;2023-02-13T23:59:31;26.83;;;17.70;;
